sensor_id;sensor_type;location;lat;lon;timestamp;P1;durP1;ratioP1;P2;durP2;ratioP2
8268;SDS011;4174;48.304;16.364;2023-05-27T00:05:45;11.40;;;3.93;;
8268;SDS011;4174;48.304;16.364;2023-05-27T00:11:50;13.13;;;4.43;;
8268;SDS011;4174;48.304;16.364;2023-05-27T00:17:54;12.50;;;4.30;;
8268;SDS011;4174;48.304;16.364;2023-05-27T00:23:58;11.98;;;3.95;;
8268;SDS011;4174;48.304;16.364;2023-05-27T00:30:02;11.13;;;4.30;;
8268;SDS011;4174;48.304;16.364;2023-05-27T00:36:05;11.45;;;3.95;;
8268;SDS011;4174;48.304;16.364;2023-05-27T00:42:09;13.50;;;4.00;;
8268;SDS011;4174;48.304;16.364;2023-05-27T00:48:12;14.77;;;4.40;;
8268;SDS011;4174;48.304;16.364;2023-05-27T00:54:16;10.77;;;4.30;;
8268;SDS011;4174;48.304;16.364;2023-05-27T01:00:20;10.68;;;4.03;;
8268;SDS011;4174;48.304;16.364;2023-05-27T01:06:32;10.60;;;4.10;;
8268;SDS011;4174;48.304;16.364;2023-05-27T01:12:39;10.60;;;4.27;;
8268;SDS011;4174;48.304;16.364;2023-05-27T01:18:44;13.03;;;4.20;;
8268;SDS011;4174;48.304;16.364;2023-05-27T01:24:46;13.47;;;4.37;;
8268;SDS011;4174;48.304;16.364;2023-05-27T01:30:50;12.57;;;4.25;;
8268;SDS011;4174;48.304;16.364;2023-05-27T01:36:53;12.10;;;4.37;;
8268;SDS011;4174;48.304;16.364;2023-05-27T01:42:56;12.43;;;4.20;;
8268;SDS011;4174;48.304;16.364;2023-05-27T01:48:58;9.47;;;4.03;;
8268;SDS011;4174;48.304;16.364;2023-05-27T01:55:02;11.73;;;4.30;;
8268;SDS011;4174;48.304;16.364;2023-05-27T02:01:05;11.40;;;4.00;;
8268;SDS011;4174;48.304;16.364;2023-05-27T02:07:10;12.67;;;4.27;;
8268;SDS011;4174;48.304;16.364;2023-05-27T02:13:14;12.43;;;4.00;;
8268;SDS011;4174;48.304;16.364;2023-05-27T02:19:17;12.13;;;4.03;;
8268;SDS011;4174;48.304;16.364;2023-05-27T02:25:21;13.17;;;4.23;;
8268;SDS011;4174;48.304;16.364;2023-05-27T02:31:25;13.47;;;4.00;;
8268;SDS011;4174;48.304;16.364;2023-05-27T02:37:29;11.50;;;3.83;;
8268;SDS011;4174;48.304;16.364;2023-05-27T02:43:33;13.73;;;4.07;;
8268;SDS011;4174;48.304;16.364;2023-05-27T02:49:37;10.65;;;3.70;;
8268;SDS011;4174;48.304;16.364;2023-05-27T02:55:40;10.30;;;3.90;;
8268;SDS011;4174;48.304;16.364;2023-05-27T03:01:44;11.95;;;3.90;;
8268;SDS011;4174;48.304;16.364;2023-05-27T03:07:48;11.67;;;3.90;;
8268;SDS011;4174;48.304;16.364;2023-05-27T03:13:52;10.00;;;3.62;;
8268;SDS011;4174;48.304;16.364;2023-05-27T03:19:56;10.98;;;3.80;;
8268;SDS011;4174;48.304;16.364;2023-05-27T03:25:59;11.23;;;4.00;;
8268;SDS011;4174;48.304;16.364;2023-05-27T03:32:03;11.03;;;4.10;;
8268;SDS011;4174;48.304;16.364;2023-05-27T03:38:08;10.47;;;3.70;;
8268;SDS011;4174;48.304;16.364;2023-05-27T03:44:12;11.45;;;3.87;;
8268;SDS011;4174;48.304;16.364;2023-05-27T03:50:16;10.80;;;4.20;;
8268;SDS011;4174;48.304;16.364;2023-05-27T03:56:19;13.03;;;3.97;;
8268;SDS011;4174;48.304;16.364;2023-05-27T04:02:23;13.27;;;3.77;;
8268;SDS011;4174;48.304;16.364;2023-05-27T04:08:27;10.93;;;3.20;;
8268;SDS011;4174;48.304;16.364;2023-05-27T04:14:30;9.82;;;3.10;;
8268;SDS011;4174;48.304;16.364;2023-05-27T04:20:36;11.10;;;3.77;;
8268;SDS011;4174;48.304;16.364;2023-05-27T04:26:40;9.73;;;3.35;;
8268;SDS011;4174;48.304;16.364;2023-05-27T04:32:44;11.33;;;3.20;;
8268;SDS011;4174;48.304;16.364;2023-05-27T04:38:48;13.18;;;3.20;;
8268;SDS011;4174;48.304;16.364;2023-05-27T04:44:51;10.63;;;3.22;;
8268;SDS011;4174;48.304;16.364;2023-05-27T04:50:55;10.70;;;3.22;;
8268;SDS011;4174;48.304;16.364;2023-05-27T04:57:00;10.67;;;2.93;;
8268;SDS011;4174;48.304;16.364;2023-05-27T05:03:05;11.23;;;3.15;;
8268;SDS011;4174;48.304;16.364;2023-05-27T05:09:09;10.18;;;3.00;;
8268;SDS011;4174;48.304;16.364;2023-05-27T05:15:13;12.53;;;3.00;;
8268;SDS011;4174;48.304;16.364;2023-05-27T05:21:16;13.07;;;2.87;;
8268;SDS011;4174;48.304;16.364;2023-05-27T05:27:20;9.17;;;2.80;;
8268;SDS011;4174;48.304;16.364;2023-05-27T05:33:24;10.88;;;2.83;;
8268;SDS011;4174;48.304;16.364;2023-05-27T05:39:28;10.13;;;2.90;;
8268;SDS011;4174;48.304;16.364;2023-05-27T05:45:32;10.68;;;3.10;;
8268;SDS011;4174;48.304;16.364;2023-05-27T05:51:36;8.38;;;2.62;;
8268;SDS011;4174;48.304;16.364;2023-05-27T05:57:40;11.63;;;3.00;;
8268;SDS011;4174;48.304;16.364;2023-05-27T06:03:43;10.98;;;2.70;;
8268;SDS011;4174;48.304;16.364;2023-05-27T06:09:47;9.10;;;2.97;;
8268;SDS011;4174;48.304;16.364;2023-05-27T06:15:50;8.85;;;2.87;;
8268;SDS011;4174;48.304;16.364;2023-05-27T06:21:54;11.20;;;3.10;;
8268;SDS011;4174;48.304;16.364;2023-05-27T06:27:58;9.30;;;2.70;;
8268;SDS011;4174;48.304;16.364;2023-05-27T06:34:02;10.57;;;2.70;;
8268;SDS011;4174;48.304;16.364;2023-05-27T06:40:08;11.48;;;2.83;;
8268;SDS011;4174;48.304;16.364;2023-05-27T06:46:14;10.33;;;2.70;;
8268;SDS011;4174;48.304;16.364;2023-05-27T06:52:17;11.30;;;3.05;;
8268;SDS011;4174;48.304;16.364;2023-05-27T06:58:21;11.37;;;3.20;;
8268;SDS011;4174;48.304;16.364;2023-05-27T07:04:26;10.70;;;2.65;;
8268;SDS011;4174;48.304;16.364;2023-05-27T07:10:30;13.05;;;3.17;;
8268;SDS011;4174;48.304;16.364;2023-05-27T07:16:34;10.23;;;2.90;;
8268;SDS011;4174;48.304;16.364;2023-05-27T07:22:37;11.40;;;2.97;;
8268;SDS011;4174;48.304;16.364;2023-05-27T07:28:41;11.60;;;2.70;;
8268;SDS011;4174;48.304;16.364;2023-05-27T07:34:44;10.82;;;3.00;;
8268;SDS011;4174;48.304;16.364;2023-05-27T07:40:48;12.13;;;3.17;;
8268;SDS011;4174;48.304;16.364;2023-05-27T07:46:51;10.38;;;2.90;;
8268;SDS011;4174;48.304;16.364;2023-05-27T07:52:55;15.00;;;2.90;;
8268;SDS011;4174;48.304;16.364;2023-05-27T07:58:59;10.77;;;2.70;;
8268;SDS011;4174;48.304;16.364;2023-05-27T08:05:02;15.47;;;2.60;;
8268;SDS011;4174;48.304;16.364;2023-05-27T08:11:08;11.05;;;2.90;;
8268;SDS011;4174;48.304;16.364;2023-05-27T08:17:11;10.47;;;2.87;;
8268;SDS011;4174;48.304;16.364;2023-05-27T08:23:15;9.82;;;2.70;;
8268;SDS011;4174;48.304;16.364;2023-05-27T08:29:19;10.27;;;2.80;;
8268;SDS011;4174;48.304;16.364;2023-05-27T08:35:23;9.38;;;2.75;;
8268;SDS011;4174;48.304;16.364;2023-05-27T08:41:27;9.48;;;2.62;;
8268;SDS011;4174;48.304;16.364;2023-05-27T08:47:29;11.48;;;2.70;;
8268;SDS011;4174;48.304;16.364;2023-05-27T08:53:34;23.37;;;3.10;;
8268;SDS011;4174;48.304;16.364;2023-05-27T08:59:37;9.83;;;2.53;;
8268;SDS011;4174;48.304;16.364;2023-05-27T09:05:41;9.45;;;2.70;;
8268;SDS011;4174;48.304;16.364;2023-05-27T09:11:45;11.80;;;2.80;;
8268;SDS011;4174;48.304;16.364;2023-05-27T09:17:49;11.00;;;2.78;;
8268;SDS011;4174;48.304;16.364;2023-05-27T09:23:55;11.52;;;2.62;;
8268;SDS011;4174;48.304;16.364;2023-05-27T09:30:05;9.33;;;2.57;;
8268;SDS011;4174;48.304;16.364;2023-05-27T09:36:08;9.17;;;2.60;;
8268;SDS011;4174;48.304;16.364;2023-05-27T09:42:12;11.50;;;2.60;;
8268;SDS011;4174;48.304;16.364;2023-05-27T09:48:16;10.93;;;2.80;;
8268;SDS011;4174;48.304;16.364;2023-05-27T09:54:20;11.02;;;2.90;;
8268;SDS011;4174;48.304;16.364;2023-05-27T10:00:23;9.07;;;2.78;;
8268;SDS011;4174;48.304;16.364;2023-05-27T10:06:26;8.90;;;2.53;;
8268;SDS011;4174;48.304;16.364;2023-05-27T10:12:29;10.50;;;2.65;;
8268;SDS011;4174;48.304;16.364;2023-05-27T10:18:32;11.60;;;2.90;;
8268;SDS011;4174;48.304;16.364;2023-05-27T10:24:36;9.93;;;2.62;;
8268;SDS011;4174;48.304;16.364;2023-05-27T10:30:42;9.30;;;2.30;;
8268;SDS011;4174;48.304;16.364;2023-05-27T10:36:45;7.97;;;2.40;;
8268;SDS011;4174;48.304;16.364;2023-05-27T10:42:57;7.75;;;2.50;;
8268;SDS011;4174;48.304;16.364;2023-05-27T10:48:50;9.83;;;2.50;;
8268;SDS011;4174;48.304;16.364;2023-05-27T10:54:53;8.80;;;2.80;;
8268;SDS011;4174;48.304;16.364;2023-05-27T11:00:57;8.47;;;2.50;;
8268;SDS011;4174;48.304;16.364;2023-05-27T11:07:00;12.83;;;2.90;;
8268;SDS011;4174;48.304;16.364;2023-05-27T11:13:04;7.83;;;2.60;;
8268;SDS011;4174;48.304;16.364;2023-05-27T11:19:10;9.95;;;2.83;;
8268;SDS011;4174;48.304;16.364;2023-05-27T11:25:10;8.23;;;2.40;;
8268;SDS011;4174;48.304;16.364;2023-05-27T11:31:14;9.93;;;2.60;;
8268;SDS011;4174;48.304;16.364;2023-05-27T11:37:17;10.10;;;2.60;;
8268;SDS011;4174;48.304;16.364;2023-05-27T11:43:21;10.82;;;2.97;;
8268;SDS011;4174;48.304;16.364;2023-05-27T11:49:25;9.43;;;2.73;;
8268;SDS011;4174;48.304;16.364;2023-05-27T11:55:29;10.48;;;2.78;;
8268;SDS011;4174;48.304;16.364;2023-05-27T12:01:31;8.60;;;2.57;;
8268;SDS011;4174;48.304;16.364;2023-05-27T12:07:35;9.40;;;2.80;;
8268;SDS011;4174;48.304;16.364;2023-05-27T12:13:39;8.32;;;2.62;;
8268;SDS011;4174;48.304;16.364;2023-05-27T12:19:42;9.80;;;2.43;;
8268;SDS011;4174;48.304;16.364;2023-05-27T12:25:46;10.17;;;2.40;;
8268;SDS011;4174;48.304;16.364;2023-05-27T12:31:50;9.25;;;2.40;;
8268;SDS011;4174;48.304;16.364;2023-05-27T12:37:54;8.97;;;2.50;;
8268;SDS011;4174;48.304;16.364;2023-05-27T12:43:57;8.48;;;2.70;;
8268;SDS011;4174;48.304;16.364;2023-05-27T12:50:01;8.85;;;2.70;;
8268;SDS011;4174;48.304;16.364;2023-05-27T12:56:06;10.10;;;2.60;;
8268;SDS011;4174;48.304;16.364;2023-05-27T13:02:10;9.60;;;2.40;;
8268;SDS011;4174;48.304;16.364;2023-05-27T13:08:13;8.87;;;2.40;;
8268;SDS011;4174;48.304;16.364;2023-05-27T13:14:17;10.45;;;2.67;;
8268;SDS011;4174;48.304;16.364;2023-05-27T13:20:22;8.57;;;2.58;;
8268;SDS011;4174;48.304;16.364;2023-05-27T13:26:23;7.73;;;2.60;;
8268;SDS011;4174;48.304;16.364;2023-05-27T13:32:27;10.07;;;2.58;;
8268;SDS011;4174;48.304;16.364;2023-05-27T13:38:31;8.40;;;2.40;;
8268;SDS011;4174;48.304;16.364;2023-05-27T13:44:34;9.57;;;2.73;;
8268;SDS011;4174;48.304;16.364;2023-05-27T13:50:37;8.98;;;2.60;;
8268;SDS011;4174;48.304;16.364;2023-05-27T13:56:41;8.93;;;2.70;;
8268;SDS011;4174;48.304;16.364;2023-05-27T14:02:46;11.35;;;2.58;;
8268;SDS011;4174;48.304;16.364;2023-05-27T14:08:50;9.20;;;2.40;;
8268;SDS011;4174;48.304;16.364;2023-05-27T14:14:54;9.85;;;2.53;;
8268;SDS011;4174;48.304;16.364;2023-05-27T14:20:58;8.20;;;2.58;;
8268;SDS011;4174;48.304;16.364;2023-05-27T14:27:01;10.38;;;2.70;;
8268;SDS011;4174;48.304;16.364;2023-05-27T14:33:05;8.50;;;2.60;;
8268;SDS011;4174;48.304;16.364;2023-05-27T14:39:09;10.60;;;2.50;;
8268;SDS011;4174;48.304;16.364;2023-05-27T14:45:13;10.25;;;2.70;;
8268;SDS011;4174;48.304;16.364;2023-05-27T14:51:18;8.35;;;2.40;;
8268;SDS011;4174;48.304;16.364;2023-05-27T14:57:22;8.77;;;2.50;;
8268;SDS011;4174;48.304;16.364;2023-05-27T15:03:26;10.27;;;2.50;;
8268;SDS011;4174;48.304;16.364;2023-05-27T15:09:29;9.90;;;2.53;;
8268;SDS011;4174;48.304;16.364;2023-05-27T15:15:33;9.77;;;2.37;;
8268;SDS011;4174;48.304;16.364;2023-05-27T15:21:36;9.20;;;2.50;;
8268;SDS011;4174;48.304;16.364;2023-05-27T15:27:40;8.43;;;2.40;;
8268;SDS011;4174;48.304;16.364;2023-05-27T15:33:44;8.60;;;2.43;;
8268;SDS011;4174;48.304;16.364;2023-05-27T15:39:48;8.32;;;2.50;;
8268;SDS011;4174;48.304;16.364;2023-05-27T15:45:52;8.67;;;2.30;;
8268;SDS011;4174;48.304;16.364;2023-05-27T15:51:56;9.70;;;2.25;;
8268;SDS011;4174;48.304;16.364;2023-05-27T15:58:00;8.20;;;2.30;;
8268;SDS011;4174;48.304;16.364;2023-05-27T16:04:04;7.45;;;2.30;;
8268;SDS011;4174;48.304;16.364;2023-05-27T16:10:08;10.03;;;2.23;;
8268;SDS011;4174;48.304;16.364;2023-05-27T16:16:10;8.90;;;2.20;;
8268;SDS011;4174;48.304;16.364;2023-05-27T16:22:14;9.63;;;2.20;;
8268;SDS011;4174;48.304;16.364;2023-05-27T16:28:18;7.18;;;1.95;;
8268;SDS011;4174;48.304;16.364;2023-05-27T16:34:21;7.43;;;2.43;;
8268;SDS011;4174;48.304;16.364;2023-05-27T16:40:26;8.68;;;2.28;;
8268;SDS011;4174;48.304;16.364;2023-05-27T16:46:29;8.35;;;2.00;;
8268;SDS011;4174;48.304;16.364;2023-05-27T16:52:34;7.57;;;2.25;;
8268;SDS011;4174;48.304;16.364;2023-05-27T16:58:38;9.40;;;2.05;;
8268;SDS011;4174;48.304;16.364;2023-05-27T17:04:42;9.60;;;2.30;;
8268;SDS011;4174;48.304;16.364;2023-05-27T17:10:45;9.20;;;2.30;;
8268;SDS011;4174;48.304;16.364;2023-05-27T17:16:49;9.57;;;2.40;;
8268;SDS011;4174;48.304;16.364;2023-05-27T17:22:53;6.57;;;2.13;;
8268;SDS011;4174;48.304;16.364;2023-05-27T17:28:56;11.27;;;2.63;;
8268;SDS011;4174;48.304;16.364;2023-05-27T17:34:59;7.93;;;2.40;;
8268;SDS011;4174;48.304;16.364;2023-05-27T17:41:02;9.95;;;2.53;;
8268;SDS011;4174;48.304;16.364;2023-05-27T17:47:06;7.82;;;2.42;;
8268;SDS011;4174;48.304;16.364;2023-05-27T17:53:09;7.43;;;2.30;;
8268;SDS011;4174;48.304;16.364;2023-05-27T17:59:13;9.30;;;2.60;;
8268;SDS011;4174;48.304;16.364;2023-05-27T18:05:17;8.57;;;2.30;;
8268;SDS011;4174;48.304;16.364;2023-05-27T18:11:21;8.95;;;2.50;;
8268;SDS011;4174;48.304;16.364;2023-05-27T18:17:24;10.07;;;2.50;;
8268;SDS011;4174;48.304;16.364;2023-05-27T18:23:28;9.00;;;2.50;;
8268;SDS011;4174;48.304;16.364;2023-05-27T18:29:31;9.67;;;2.60;;
8268;SDS011;4174;48.304;16.364;2023-05-27T18:35:36;9.90;;;2.47;;
8268;SDS011;4174;48.304;16.364;2023-05-27T18:41:40;9.95;;;2.60;;
8268;SDS011;4174;48.304;16.364;2023-05-27T18:47:44;9.07;;;2.60;;
8268;SDS011;4174;48.304;16.364;2023-05-27T18:53:48;10.18;;;2.90;;
8268;SDS011;4174;48.304;16.364;2023-05-27T18:59:51;9.40;;;2.92;;
8268;SDS011;4174;48.304;16.364;2023-05-27T19:05:54;10.60;;;3.30;;
8268;SDS011;4174;48.304;16.364;2023-05-27T19:11:58;28.03;;;11.00;;
8268;SDS011;4174;48.304;16.364;2023-05-27T19:18:01;16.57;;;6.20;;
8268;SDS011;4174;48.304;16.364;2023-05-27T19:24:05;13.90;;;4.18;;
8268;SDS011;4174;48.304;16.364;2023-05-27T19:30:09;9.67;;;3.40;;
8268;SDS011;4174;48.304;16.364;2023-05-27T19:36:13;11.10;;;3.80;;
8268;SDS011;4174;48.304;16.364;2023-05-27T19:42:17;10.73;;;3.37;;
8268;SDS011;4174;48.304;16.364;2023-05-27T19:48:21;9.67;;;2.77;;
8268;SDS011;4174;48.304;16.364;2023-05-27T19:54:22;10.27;;;2.90;;
8268;SDS011;4174;48.304;16.364;2023-05-27T20:00:26;9.73;;;2.40;;
8268;SDS011;4174;48.304;16.364;2023-05-27T20:06:30;8.93;;;2.10;;
8268;SDS011;4174;48.304;16.364;2023-05-27T20:12:43;8.63;;;2.22;;
8268;SDS011;4174;48.304;16.364;2023-05-27T20:18:45;7.70;;;2.20;;
8268;SDS011;4174;48.304;16.364;2023-05-27T20:24:49;8.20;;;2.40;;
8268;SDS011;4174;48.304;16.364;2023-05-27T20:30:53;8.82;;;2.28;;
8268;SDS011;4174;48.304;16.364;2023-05-27T20:36:56;7.95;;;2.20;;
8268;SDS011;4174;48.304;16.364;2023-05-27T20:43:00;10.93;;;2.77;;
8268;SDS011;4174;48.304;16.364;2023-05-27T20:49:03;8.03;;;2.60;;
8268;SDS011;4174;48.304;16.364;2023-05-27T20:55:07;9.63;;;2.70;;
8268;SDS011;4174;48.304;16.364;2023-05-27T21:01:10;8.85;;;2.60;;
8268;SDS011;4174;48.304;16.364;2023-05-27T21:07:14;7.93;;;2.20;;
8268;SDS011;4174;48.304;16.364;2023-05-27T21:13:18;7.67;;;2.23;;
8268;SDS011;4174;48.304;16.364;2023-05-27T21:19:21;10.63;;;3.20;;
8268;SDS011;4174;48.304;16.364;2023-05-27T21:25:24;9.77;;;3.30;;
8268;SDS011;4174;48.304;16.364;2023-05-27T21:31:29;10.48;;;3.03;;
8268;SDS011;4174;48.304;16.364;2023-05-27T21:37:33;9.30;;;3.10;;
8268;SDS011;4174;48.304;16.364;2023-05-27T21:43:36;8.90;;;3.00;;
8268;SDS011;4174;48.304;16.364;2023-05-27T21:49:40;9.67;;;2.80;;
8268;SDS011;4174;48.304;16.364;2023-05-27T21:55:43;11.70;;;3.40;;
8268;SDS011;4174;48.304;16.364;2023-05-27T22:01:47;9.90;;;3.13;;
8268;SDS011;4174;48.304;16.364;2023-05-27T22:07:51;13.67;;;3.87;;
8268;SDS011;4174;48.304;16.364;2023-05-27T22:13:55;9.85;;;3.80;;
8268;SDS011;4174;48.304;16.364;2023-05-27T22:19:59;10.67;;;3.73;;
8268;SDS011;4174;48.304;16.364;2023-05-27T22:26:02;10.13;;;3.57;;
8268;SDS011;4174;48.304;16.364;2023-05-27T22:32:06;7.83;;;3.10;;
8268;SDS011;4174;48.304;16.364;2023-05-27T22:38:09;9.47;;;3.20;;
8268;SDS011;4174;48.304;16.364;2023-05-27T22:44:15;8.73;;;2.85;;
8268;SDS011;4174;48.304;16.364;2023-05-27T22:50:18;11.32;;;2.70;;
8268;SDS011;4174;48.304;16.364;2023-05-27T22:56:22;9.17;;;3.00;;
8268;SDS011;4174;48.304;16.364;2023-05-27T23:02:26;9.27;;;3.00;;
8268;SDS011;4174;48.304;16.364;2023-05-27T23:08:28;9.50;;;2.60;;
8268;SDS011;4174;48.304;16.364;2023-05-27T23:14:33;9.37;;;2.60;;
8268;SDS011;4174;48.304;16.364;2023-05-27T23:20:36;7.87;;;2.60;;
8268;SDS011;4174;48.304;16.364;2023-05-27T23:26:40;6.93;;;2.37;;
8268;SDS011;4174;48.304;16.364;2023-05-27T23:32:44;7.43;;;2.40;;
8268;SDS011;4174;48.304;16.364;2023-05-27T23:38:47;8.45;;;2.70;;
8268;SDS011;4174;48.304;16.364;2023-05-27T23:44:51;8.73;;;2.80;;
8268;SDS011;4174;48.304;16.364;2023-05-27T23:50:55;8.13;;;2.30;;
8268;SDS011;4174;48.304;16.364;2023-05-27T23:56:59;10.50;;;2.40;;
